createdAt,value
2019-02-06T05:59:21.695Z,17.00
2019-02-06T06:00:21.601Z,25.80
2019-02-06T06:01:21.582Z,23.10
2019-02-06T06:02:21.568Z,24.40
2019-02-06T06:03:21.552Z,21.60
2019-02-06T06:04:21.538Z,23.70
2019-02-06T11:21:03.351Z,23.00
2019-02-06T11:21:36.306Z,16.10
2019-02-06T11:22:36.342Z,18.20
2019-02-06T11:23:36.542Z,17.40
2019-02-06T13:40:56.585Z,16.80
2019-02-06T13:41:29.544Z,8.30
2019-02-06T13:42:29.518Z,6.60
2019-02-06T13:43:29.507Z,7.80
2019-02-06T13:44:29.493Z,6.90
2019-02-06T13:45:29.495Z,7.00
2019-02-06T13:46:29.494Z,6.60
2019-02-06T13:47:29.461Z,6.80
2019-02-06T13:48:29.450Z,7.30
2019-02-06T13:49:29.443Z,6.90
2019-02-06T13:50:29.437Z,7.00
2019-02-06T13:51:29.442Z,6.70
2019-02-06T13:52:29.409Z,8.80
2019-02-06T13:53:29.403Z,6.40
2019-02-06T15:37:03.430Z,7.40
2019-02-06T15:38:01.453Z,7.50
2019-02-06T15:39:01.747Z,8.20
2019-02-06T15:40:01.539Z,10.30
2019-02-06T15:41:01.608Z,7.80
2019-02-06T15:42:01.408Z,7.90
2019-02-06T15:43:01.402Z,8.80
2019-02-06T15:44:01.387Z,7.10
2019-02-06T15:45:01.378Z,8.70
2019-02-06T15:46:01.370Z,8.40
2019-02-06T15:47:01.491Z,7.80
2019-02-06T15:48:01.348Z,7.70
2019-02-06T15:49:01.333Z,10.20
2019-02-06T15:50:01.867Z,6.90
2019-02-06T15:51:03.489Z,8.40
2019-02-06T15:52:01.441Z,7.60
2019-02-06T15:53:01.298Z,8.00
2019-02-06T15:54:01.292Z,7.20
2019-02-06T15:55:01.267Z,6.90
2019-02-06T15:56:01.258Z,8.10
2019-02-06T15:57:01.271Z,7.20
2019-02-06T15:58:01.230Z,7.70
2019-02-06T15:59:01.254Z,6.50
2019-02-06T16:00:01.211Z,9.00
2019-02-06T16:01:01.198Z,8.70
2019-02-06T16:02:01.185Z,7.10
2019-02-06T16:03:01.197Z,7.60
2019-02-06T16:04:01.168Z,6.70
2019-02-06T16:05:01.321Z,9.30
2019-02-06T16:06:01.146Z,7.20
